PWSweather.com
Personal Weather Stations
Station Observations
KAZTUCSO57
Countryside Manor, Tucson, AZ 85742

Countryside ManorTucson, AZ 85742

Lat: 32.3692, Lon: -111.066

Elevation: 2307

Station Type: Davis VP Pro+ 6163

http://frogville.us

Latest ConditionsUpdated 6:10:01 PM MST Saturday, Oct 21, 2017
Currently Today's Max Today's Min Today's Average
Temperature 76.8°F24.9°C 86.2°F30.1°C 58.1°F14.5°C 73.0°F22.8°C
Dew Point 41.2°F5.1°C 50.0°F10.0°C 37.6°F3.1°C 45.1°F7.3°C
Winds 2.3 mph W3.7 kmh W 5.8 mph WSW9.3 kmh WSW - 1.1 mph 1.8 kmh
Wind Gusts 3.5 mph5.6 kmh 8.1 mph13.0 kmh - -
Humidity 28% 62% 21% 39%
Pressure 29.92 in1013.2 mb 29.92 in1013.2 mb 29.73 in1006.8 mb -
Hour Temp Dew Point Humidity Winds Wind Gusts Pressure Precip Precip Rate Daily Precip Total
06:10 PM 76.8°F24.9°C 41.2°F5.1°C 28% 2.3 mph W3.7 kmh W 3.5 mph5.6 kmh 29.92 in1013.2 mb - 0.00 in0.0 mm 0.00 in0.0 mm
06:00 PM 77.2°F25.1°C 41.6°F5.3°C 28% 2.3 mph W3.7 kmh W 3.5 mph5.6 kmh 29.91 in1012.9 mb - 0.00 in0.0 mm 0.00 in0.0 mm
05:50 PM 77.8°F25.4°C 41.1°F5.1°C 27% 2.3 mph W3.7 kmh W 3.5 mph5.6 kmh 29.90 in1012.5 mb - 0.00 in0.0 mm 0.00 in0.0 mm
05:40 PM 78.3°F25.7°C 41.6°F5.3°C 27% 2.3 mph W3.7 kmh W 6.9 mph11.1 kmh 29.89 in1012.2 mb - 0.00 in0.0 mm 0.00 in0.0 mm
05:30 PM 78.9°F26.1°C 41.1°F5.1°C 26% 2.3 mph W3.7 kmh W 8.1 mph13.0 kmh 29.89 in1012.2 mb - 0.00 in0.0 mm 0.00 in0.0 mm
05:20 PM 79.8°F26.6°C 41.9°F5.5°C 26% 4.6 mph SW7.4 kmh SW 8.1 mph13.0 kmh 29.88 in1011.9 mb - 0.00 in0.0 mm 0.00 in0.0 mm
05:10 PM 80.6°F27.0°C 39.4°F4.1°C 23% 2.3 mph WSW3.7 kmh WSW 3.5 mph5.6 kmh 29.88 in1011.9 mb - 0.00 in0.0 mm 0.00 in0.0 mm
05:00 PM 81.2°F27.3°C 37.6°F3.1°C 21% 2.3 mph W3.7 kmh W 5.8 mph9.3 kmh 29.88 in1011.9 mb - 0.00 in0.0 mm 0.00 in0.0 mm
04:50 PM 81.8°F27.7°C 39.2°F4.0°C 22% 1.2 mph ESE1.9 kmh ESE 3.5 mph5.6 kmh 29.88 in1011.9 mb - 0.00 in0.0 mm 0.00 in0.0 mm
04:40 PM 82.4°F28.0°C 39.7°F4.3°C 22% 3.5 mph W5.6 kmh W 8.1 mph13.0 kmh 29.88 in1011.9 mb - 0.00 in0.0 mm 0.00 in0.0 mm
04:30 PM 83.0°F28.3°C 40.2°F4.6°C 22% 5.8 mph WSW9.3 kmh WSW 8.1 mph13.0 kmh 29.88 in1011.9 mb - 0.00 in0.0 mm 0.00 in0.0 mm
04:20 PM 83.3°F28.5°C 40.5°F4.7°C 22% 2.3 mph WSW3.7 kmh WSW 3.5 mph5.6 kmh 29.87 in1011.5 mb - 0.00 in0.0 mm 0.00 in0.0 mm
04:10 PM 83.7°F28.7°C 41.9°F5.5°C 23% 3.5 mph WSW5.6 kmh WSW 6.9 mph11.1 kmh 29.87 in1011.5 mb - 0.00 in0.0 mm 0.00 in0.0 mm
04:00 PM 84.2°F29.0°C 42.4°F5.8°C 23% 2.3 mph WSW3.7 kmh WSW 3.5 mph5.6 kmh 29.87 in1011.5 mb - 0.00 in0.0 mm 0.00 in0.0 mm
03:50 PM 84.4°F29.1°C 43.7°F6.5°C 24% 3.5 mph WSW5.6 kmh WSW 5.8 mph9.3 kmh 29.87 in1011.5 mb - 0.00 in0.0 mm 0.00 in0.0 mm
03:40 PM 84.7°F29.3°C 42.8°F6.0°C 23% 2.3 mph WSW3.7 kmh WSW 5.8 mph9.3 kmh 29.86 in1011.2 mb - 0.00 in0.0 mm 0.00 in0.0 mm
03:30 PM 84.6°F29.2°C 43.8°F6.6°C 24% 3.5 mph W5.6 kmh W 3.5 mph5.6 kmh 29.86 in1011.2 mb - 0.00 in0.0 mm 0.00 in0.0 mm
03:20 PM 84.9°F29.4°C 42.9°F6.1°C 23% 2.3 mph SW3.7 kmh SW 4.6 mph7.4 kmh 29.86 in1011.2 mb - 0.00 in0.0 mm 0.00 in0.0 mm
03:10 PM 85.3°F29.6°C 43.3°F6.3°C 23% 3.5 mph WSW5.6 kmh WSW 3.5 mph5.6 kmh 29.86 in1011.2 mb - 0.00 in0.0 mm 0.00 in0.0 mm
03:00 PM 85.8°F29.9°C 42.6°F5.9°C 22% 3.5 mph SW5.6 kmh SW 4.6 mph7.4 kmh 29.86 in1011.2 mb - 0.00 in0.0 mm 0.00 in0.0 mm
02:50 PM 86.0°F30.0°C 42.7°F5.9°C 22% 1.2 mph SW1.9 kmh SW 3.5 mph5.6 kmh 29.86 in1011.2 mb - 0.00 in0.0 mm 0.00 in0.0 mm
02:40 PM 86.2°F30.1°C 44.0°F6.7°C 23% 2.3 mph W3.7 kmh W 3.5 mph5.6 kmh 29.86 in1011.2 mb - 0.00 in0.0 mm 0.00 in0.0 mm
02:30 PM 85.9°F29.9°C 43.8°F6.6°C 23% 1.2 mph SW1.9 kmh SW 1.2 mph1.9 kmh 29.86 in1011.2 mb - 0.00 in0.0 mm 0.00 in0.0 mm
02:20 PM 85.5°F29.7°C 44.6°F7.0°C 24% 2.3 mph W3.7 kmh W 3.5 mph5.6 kmh 29.86 in1011.2 mb - 0.00 in0.0 mm 0.00 in0.0 mm
02:10 PM 85.7°F29.8°C 44.7°F7.1°C 24% 1.2 mph N1.9 kmh N 3.5 mph5.6 kmh 29.86 in1011.2 mb - 0.00 in0.0 mm 0.00 in0.0 mm
02:00 PM 85.6°F29.8°C 44.7°F7.1°C 24% 3.5 mph WSW5.6 kmh WSW 4.6 mph7.4 kmh 29.86 in1011.2 mb - 0.00 in0.0 mm 0.00 in0.0 mm
01:50 PM 85.1°F29.5°C 44.2°F6.8°C 24% 2.3 mph SW3.7 kmh SW 5.8 mph9.3 kmh 29.86 in1011.2 mb - 0.00 in0.0 mm 0.00 in0.0 mm
01:40 PM 84.6°F29.2°C 44.9°F7.2°C 25% 2.3 mph WSW3.7 kmh WSW 6.9 mph11.1 kmh 29.86 in1011.2 mb - 0.00 in0.0 mm 0.00 in0.0 mm
01:30 PM 84.6°F29.2°C 45.9°F7.7°C 26% 1.2 mph WNW1.9 kmh WNW 2.3 mph3.7 kmh 29.87 in1011.5 mb - 0.00 in0.0 mm 0.00 in0.0 mm
01:20 PM 85.0°F29.4°C 43.0°F6.1°C 23% 1.2 mph SW1.9 kmh SW 1.2 mph1.9 kmh 29.87 in1011.5 mb - 0.00 in0.0 mm 0.00 in0.0 mm
01:10 PM 85.3°F29.6°C 44.4°F6.9°C 24% 1.2 mph WSW1.9 kmh WSW 5.8 mph9.3 kmh 29.88 in1011.9 mb - 0.00 in0.0 mm 0.00 in0.0 mm
01:00 PM 84.8°F29.3°C 44.0°F6.7°C 24% Calm Calm 2.3 mph3.7 kmh 29.88 in1011.9 mb - 0.00 in0.0 mm 0.00 in0.0 mm
12:50 PM 84.4°F29.1°C 46.8°F8.2°C 27% 2.3 mph SW3.7 kmh SW 3.5 mph5.6 kmh 29.88 in1011.9 mb - 0.00 in0.0 mm 0.00 in0.0 mm
12:40 PM 84.4°F29.1°C 48.7°F9.3°C 29% 3.5 mph WSW5.6 kmh WSW 4.6 mph7.4 kmh 29.88 in1011.9 mb - 0.00 in0.0 mm 0.00 in0.0 mm
12:30 PM 85.1°F29.5°C 47.3°F8.5°C 27% 3.5 mph WSW5.6 kmh WSW 3.5 mph5.6 kmh 29.89 in1012.2 mb - 0.00 in0.0 mm 0.00 in0.0 mm
12:20 PM 85.2°F29.6°C 47.4°F8.6°C 27% 3.5 mph WSW5.6 kmh WSW 4.6 mph7.4 kmh 29.89 in1012.2 mb - 0.00 in0.0 mm 0.00 in0.0 mm
12:10 PM 84.7°F29.3°C 48.0°F8.9°C 28% 1.2 mph NW1.9 kmh NW 3.5 mph5.6 kmh 29.89 in1012.2 mb - 0.00 in0.0 mm 0.00 in0.0 mm
12:00 PM 84.4°F29.1°C 48.7°F9.3°C 29% 1.2 mph WNW1.9 kmh WNW 2.3 mph3.7 kmh 29.89 in1012.2 mb - 0.00 in0.0 mm 0.00 in0.0 mm
11:50 AM 83.9°F28.8°C 50.0°F10.0°C 31% 1.2 mph W1.9 kmh W 3.5 mph5.6 kmh 29.89 in1012.2 mb - 0.00 in0.0 mm 0.00 in0.0 mm
11:40 AM 83.4°F28.6°C 48.7°F9.3°C 30% Calm Calm 1.2 mph1.9 kmh 29.89 in1012.2 mb - 0.00 in0.0 mm 0.00 in0.0 mm
11:30 AM 82.8°F28.2°C 49.1°F9.5°C 31% Calm Calm -- 29.89 in1012.2 mb - 0.00 in0.0 mm 0.00 in0.0 mm
11:20 AM 82.5°F28.1°C 49.7°F9.8°C 32% 1.2 mph NNE1.9 kmh NNE 2.3 mph3.7 kmh 29.89 in1012.2 mb - 0.00 in0.0 mm 0.00 in0.0 mm
11:10 AM 81.8°F27.7°C 49.1°F9.5°C 32% Calm Calm 1.2 mph1.9 kmh 29.89 in1012.2 mb - 0.00 in0.0 mm 0.00 in0.0 mm
11:00 AM 81.0°F27.2°C 49.9°F9.9°C 34% 1.2 mph WSW1.9 kmh WSW 2.3 mph3.7 kmh 29.89 in1012.2 mb - 0.00 in0.0 mm 0.00 in0.0 mm
10:50 AM 80.3°F26.8°C 49.4°F9.7°C 34% Calm Calm 1.2 mph1.9 kmh 29.89 in1012.2 mb - 0.00 in0.0 mm 0.00 in0.0 mm
10:40 AM 79.6°F26.4°C 49.5°F9.7°C 35% 1.2 mph WSW1.9 kmh WSW 2.3 mph3.7 kmh 29.89 in1012.2 mb - 0.00 in0.0 mm 0.00 in0.0 mm
10:30 AM 78.8°F26.0°C 49.6°F9.8°C 36% Calm Calm 2.3 mph3.7 kmh 29.89 in1012.2 mb - 0.00 in0.0 mm 0.00 in0.0 mm
10:20 AM 78.3°F25.7°C 49.1°F9.5°C 36% 1.2 mph SW1.9 kmh SW 3.5 mph5.6 kmh 29.90 in1012.5 mb - 0.00 in0.0 mm 0.00 in0.0 mm
10:10 AM 78.2°F25.7°C 49.8°F9.9°C 37% Calm Calm 2.3 mph3.7 kmh 29.89 in1012.2 mb - 0.00 in0.0 mm 0.00 in0.0 mm
10:00 AM 77.3°F25.2°C 49.7°F9.8°C 38% Calm Calm -- 29.89 in1012.2 mb - 0.00 in0.0 mm 0.00 in0.0 mm
09:50 AM 76.2°F24.6°C 48.8°F9.3°C 38% Calm Calm 1.2 mph1.9 kmh 29.89 in1012.2 mb - 0.00 in0.0 mm 0.00 in0.0 mm
09:40 AM 75.4°F24.1°C 48.7°F9.3°C 39% Calm Calm 3.5 mph5.6 kmh 29.89 in1012.2 mb - 0.00 in0.0 mm 0.00 in0.0 mm
09:30 AM 74.3°F23.5°C 49.1°F9.5°C 41% Calm Calm 1.2 mph1.9 kmh 29.89 in1012.2 mb - 0.00 in0.0 mm 0.00 in0.0 mm
09:20 AM 73.1°F22.8°C 48.0°F8.9°C 41% Calm Calm 2.3 mph3.7 kmh 29.89 in1012.2 mb - 0.00 in0.0 mm 0.00 in0.0 mm
09:10 AM 71.7°F22.1°C 48.6°F9.2°C 44% Calm Calm -- 29.88 in1011.9 mb - 0.00 in0.0 mm 0.00 in0.0 mm
09:00 AM 70.8°F21.6°C 47.8°F8.8°C 44% Calm Calm 1.2 mph1.9 kmh 29.88 in1011.9 mb - 0.00 in0.0 mm 0.00 in0.0 mm
08:50 AM 69.9°F21.1°C 48.2°F9.0°C 46% Calm Calm 1.2 mph1.9 kmh 29.87 in1011.5 mb - 0.00 in0.0 mm 0.00 in0.0 mm
08:40 AM 68.5°F20.3°C 48.1°F8.9°C 48% Calm Calm 1.2 mph1.9 kmh 29.87 in1011.5 mb - 0.00 in0.0 mm 0.00 in0.0 mm
08:30 AM 66.8°F19.3°C 48.1°F8.9°C 51% Calm Calm -- 29.87 in1011.5 mb - 0.00 in0.0 mm 0.00 in0.0 mm
08:20 AM 65.6°F18.7°C 48.0°F8.9°C 53% Calm Calm -- 29.86 in1011.2 mb - 0.00 in0.0 mm 0.00 in0.0 mm
08:10 AM 64.4°F18.0°C 47.4°F8.6°C 54% Calm Calm -- 29.86 in1011.2 mb - 0.00 in0.0 mm 0.00 in0.0 mm
08:00 AM 63.4°F17.4°C 47.4°F8.6°C 56% Calm Calm 1.2 mph1.9 kmh 29.86 in1011.2 mb - 0.00 in0.0 mm 0.00 in0.0 mm
07:50 AM 62.5°F16.9°C 47.0°F8.3°C 57% 1.2 mph NNE1.9 kmh NNE 2.3 mph3.7 kmh 29.86 in1011.2 mb - 0.00 in0.0 mm 0.00 in0.0 mm
07:40 AM 61.4°F16.3°C 46.9°F8.3°C 59% Calm Calm 2.3 mph3.7 kmh 29.85 in1010.8 mb - 0.00 in0.0 mm 0.00 in0.0 mm
07:30 AM 60.2°F15.7°C 46.2°F7.9°C 60% Calm Calm -- 29.85 in1010.8 mb - 0.00 in0.0 mm 0.00 in0.0 mm
07:20 AM 59.0°F15.0°C 45.6°F7.6°C 61% Calm Calm -- 29.84 in1010.5 mb - 0.00 in0.0 mm 0.00 in0.0 mm
07:10 AM 58.3°F14.6°C 45.3°F7.4°C 62% Calm Calm -- 29.83 in1010.2 mb - 0.00 in0.0 mm 0.00 in0.0 mm
07:00 AM 58.1°F14.5°C 45.1°F7.3°C 62% Calm Calm -- 29.83 in1010.2 mb - 0.00 in0.0 mm 0.00 in0.0 mm
06:50 AM 58.3°F14.6°C 44.9°F7.2°C 61% Calm Calm -- 29.83 in1010.2 mb - 0.00 in0.0 mm 0.00 in0.0 mm
06:40 AM 58.6°F14.8°C 44.8°F7.1°C 60% Calm Calm -- 29.82 in1009.8 mb - 0.00 in0.0 mm 0.00 in0.0 mm
06:30 AM 58.8°F14.9°C 44.9°F7.2°C 60% Calm Calm -- 29.81 in1009.5 mb - 0.00 in0.0 mm 0.00 in0.0 mm
06:20 AM 59.1°F15.1°C 44.8°F7.1°C 59% Calm Calm -- 29.81 in1009.5 mb - 0.00 in0.0 mm 0.00 in0.0 mm
06:10 AM 59.7°F15.4°C 44.4°F6.9°C 57% Calm Calm -- 29.80 in1009.1 mb - 0.00 in0.0 mm 0.00 in0.0 mm
06:00 AM 60.0°F15.6°C 44.3°F6.8°C 56% Calm Calm -- 29.80 in1009.1 mb - 0.00 in0.0 mm 0.00 in0.0 mm
05:50 AM 60.2°F15.7°C 44.4°F6.9°C 56% Calm Calm -- 29.80 in1009.1 mb - 0.00 in0.0 mm 0.00 in0.0 mm
05:40 AM 60.4°F15.8°C 45.1°F7.3°C 57% Calm Calm -- 29.80 in1009.1 mb - 0.00 in0.0 mm 0.00 in0.0 mm
05:30 AM 60.5°F15.8°C 44.7°F7.1°C 56% Calm Calm -- 29.79 in1008.8 mb - 0.00 in0.0 mm 0.00 in0.0 mm
05:20 AM 60.8°F16.0°C 45.0°F7.2°C 56% Calm Calm -- 29.80 in1009.1 mb - 0.00 in0.0 mm 0.00 in0.0 mm
05:10 AM 61.1°F16.2°C 45.3°F7.4°C 56% Calm Calm -- 29.79 in1008.8 mb - 0.00 in0.0 mm 0.00 in0.0 mm
05:00 AM 61.1°F16.2°C 45.3°F7.4°C 56% Calm Calm -- 29.78 in1008.5 mb - 0.00 in0.0 mm 0.00 in0.0 mm
04:50 AM 61.4°F16.3°C 44.6°F7.0°C 54% Calm Calm -- 29.78 in1008.5 mb - 0.00 in0.0 mm 0.00 in0.0 mm
04:40 AM 61.6°F16.4°C 44.8°F7.1°C 54% Calm Calm 2.3 mph3.7 kmh 29.79 in1008.8 mb - 0.00 in0.0 mm 0.00 in0.0 mm
04:30 AM 61.8°F16.6°C 45.0°F7.2°C 54% Calm Calm -- 29.77 in1008.1 mb - 0.00 in0.0 mm 0.00 in0.0 mm
04:20 AM 62.1°F16.7°C 44.7°F7.1°C 53% Calm Calm -- 29.77 in1008.1 mb - 0.00 in0.0 mm 0.00 in0.0 mm
04:10 AM 62.2°F16.8°C 44.9°F7.2°C 53% Calm Calm -- 29.77 in1008.1 mb - 0.00 in0.0 mm 0.00 in0.0 mm
04:00 AM 62.3°F16.8°C 44.4°F6.9°C 52% Calm Calm 1.2 mph1.9 kmh 29.77 in1008.1 mb - 0.00 in0.0 mm 0.00 in0.0 mm
03:50 AM 62.5°F16.9°C 44.6°F7.0°C 52% 1.2 mph N1.9 kmh N 1.2 mph1.9 kmh 29.76 in1007.8 mb - 0.00 in0.0 mm 0.00 in0.0 mm
03:40 AM 62.4°F16.9°C 44.5°F6.9°C 52% Calm Calm -- 29.75 in1007.5 mb - 0.00 in0.0 mm 0.00 in0.0 mm
03:30 AM 62.5°F16.9°C 44.6°F7.0°C 52% Calm Calm -- 29.74 in1007.1 mb - 0.00 in0.0 mm 0.00 in0.0 mm
03:20 AM 62.6°F17.0°C 44.7°F7.1°C 52% 1.2 mph N1.9 kmh N 2.3 mph3.7 kmh 29.74 in1007.1 mb - 0.00 in0.0 mm 0.00 in0.0 mm
03:10 AM 62.6°F17.0°C 44.7°F7.1°C 52% Calm Calm -- 29.73 in1006.8 mb - 0.00 in0.0 mm 0.00 in0.0 mm
03:00 AM 62.9°F17.2°C 45.0°F7.2°C 52% Calm Calm -- 29.73 in1006.8 mb - 0.00 in0.0 mm 0.00 in0.0 mm
02:50 AM 63.4°F17.4°C 43.9°F6.6°C 49% Calm Calm -- 29.73 in1006.8 mb - 0.00 in0.0 mm 0.00 in0.0 mm
02:40 AM 63.9°F17.7°C 43.8°F6.6°C 48% 1.2 mph NNW1.9 kmh NNW 1.2 mph1.9 kmh 29.74 in1007.1 mb - 0.00 in0.0 mm 0.00 in0.0 mm
02:30 AM 64.4°F18.0°C 43.7°F6.5°C 47% Calm Calm -- 29.74 in1007.1 mb - 0.00 in0.0 mm 0.00 in0.0 mm
02:20 AM 64.9°F18.3°C 43.6°F6.4°C 46% Calm Calm -- 29.74 in1007.1 mb - 0.00 in0.0 mm 0.00 in0.0 mm
02:10 AM 65.6°F18.7°C 43.7°F6.5°C 45% Calm Calm 1.2 mph1.9 kmh 29.74 in1007.1 mb - 0.00 in0.0 mm 0.00 in0.0 mm
02:00 AM 66.5°F19.2°C 43.9°F6.6°C 44% Calm Calm -- 29.74 in1007.1 mb - 0.00 in0.0 mm 0.00 in0.0 mm
01:50 AM 67.2°F19.6°C 43.9°F6.6°C 43% Calm Calm -- 29.73 in1006.8 mb - 0.00 in0.0 mm 0.00 in0.0 mm
01:40 AM 67.6°F19.8°C 44.3°F6.8°C 43% Calm Calm -- 29.73 in1006.8 mb - 0.00 in0.0 mm 0.00 in0.0 mm
01:30 AM 68.5°F20.3°C 43.2°F6.2°C 40% Calm Calm 1.2 mph1.9 kmh 29.73 in1006.8 mb - 0.00 in0.0 mm 0.00 in0.0 mm
01:20 AM 69.1°F20.6°C 43.8°F6.6°C 40% Calm Calm -- 29.73 in1006.8 mb - 0.00 in0.0 mm 0.00 in0.0 mm
01:10 AM 69.4°F20.8°C 44.0°F6.7°C 40% Calm Calm -- 29.74 in1007.1 mb - 0.00 in0.0 mm 0.00 in0.0 mm
01:00 AM 69.7°F20.9°C 43.6°F6.4°C 39% Calm Calm 1.2 mph1.9 kmh 29.73 in1006.8 mb - 0.00 in0.0 mm 0.00 in0.0 mm
12:50 AM 69.9°F21.1°C 43.8°F6.6°C 39% 1.2 mph WSW1.9 kmh WSW 2.3 mph3.7 kmh 29.74 in1007.1 mb - 0.00 in0.0 mm 0.00 in0.0 mm
12:40 AM 70.1°F21.2°C 44.0°F6.7°C 39% 1.2 mph SW1.9 kmh SW 1.2 mph1.9 kmh 29.74 in1007.1 mb - 0.00 in0.0 mm 0.00 in0.0 mm
12:30 AM 70.2°F21.2°C 44.0°F6.7°C 39% 3.5 mph WSW5.6 kmh WSW 3.5 mph5.6 kmh 29.74 in1007.1 mb - 0.00 in0.0 mm 0.00 in0.0 mm
12:20 AM 70.3°F21.3°C 44.2°F6.8°C 39% 2.3 mph WSW3.7 kmh WSW 3.5 mph5.6 kmh 29.74 in1007.1 mb - 0.00 in0.0 mm 0.00 in0.0 mm
12:10 AM 70.6°F21.4°C 43.7°F6.5°C 38% 2.3 mph WSW3.7 kmh WSW 6.9 mph11.1 kmh 29.74 in1007.1 mb - 0.00 in0.0 mm 0.00 in0.0 mm
12:00 AM 70.8°F21.6°C 43.9°F6.6°C 38% 2.3 mph WSW3.7 kmh WSW 3.5 mph5.6 kmh 29.74 in1007.1 mb - 0.00 in0.0 mm 0.00 in0.0 mm